• Join FlightAware (Why Join?)
  • Login
  • US Flag GB Flag 
13:23 EDT


 

Airport Tracker/Info


-or-


 

Live Flight TrackerFlight Track Log ✈ SWA1303 ✈ 20-Apr-2013 ✈ KBUR - KSJC

Flight Track Log - Related Links

Times and Time Zones

All times are in EDT time to prevent confusion due to time zone crossing. See the SWA1303 flight status page for this flight to view local times or setup timezone preferences in your user account.

Time Position Orientation Groundspeed Altitude Reporting Facility
EDT Latitude Longitude Course Direction KTS MPH feet Rate Location/Type
11:24 34.1808 -118.3564 250° West 161 185 38,000  Level Los Angeles Center
11:25 34.1644 -118.4122 250° West 251 289 4,200 -14,760 Descending Los Angeles Center
11:26 34.2192 -118.4508 330° Northwest 224 258 7,500 3,720 Climbing Los Angeles Center
11:27 34.2831 -118.4956 330° Northwest 256 295 12,000 4,140 Climbing Los Angeles Center
11:28 34.3517 -118.5433 330° Northwest 275 316 16,000 3,360 Climbing Los Angeles Center
11:29 34.4489 -118.6106 330° Northwest 347 399 18,900 3,000 Climbing Los Angeles Center
11:30 34.5367 -118.6714 330° Northwest 362 417 22,200 3,120 Climbing Los Angeles Center
11:31 34.6250 -118.7367 329° Northwest 372 428 25,400 2,760 Climbing Los Angeles Center
11:32 34.7175 -118.8017 330° Northwest 384 442 27,900 2,220 Climbing Los Angeles Center
11:33 34.8142 -118.8708 330° Northwest 399 459 30,000 960 Climbing Los Angeles Center
11:34 34.9147 -118.9544 326° Northwest 404 465 30,000  Level Los Angeles Center
11:35 35.0081 -119.0297 327° Northwest 402 463 30,000  Level Los Angeles Center
11:36 35.1003 -119.1089 325° Northwest 404 465 30,000  Level Los Angeles Center
11:37 35.1592 -119.2261 302° West 410 472 30,000  Level Los Angeles Center
11:39 35.2297 -119.3711 301° West 413 475 30,000 60 Level Los Angeles Center
11:40 35.2864 -119.4922 300° West 414 476 30,200 1,560 Climbing Los Angeles Center
11:41 35.3431 -119.6108 300° West 406 467 33,300 2,820 Climbing Los Angeles Center
11:41 35.3844 -119.7014 299° West 398 458 35,200 1,500 Climbing Oakland Center
11:42 35.4392 -119.8178 300° West 397 457 36,000 360 Climbing Oakland Center
11:43 35.4939 -119.9342 300° West 398 458 36,000  Level Oakland Center
11:44 35.5478 -120.0483 300° West 394 453 36,000  Level Oakland Center
11:45 35.6006 -120.1639 299° West 393 452 36,000  Level Oakland Center
11:46 35.6528 -120.2783 299° West 392 451 36,000 -480 Level Oakland Center
11:47 35.7053 -120.3936 299° West 392 451 35,100 -1,020 Descending Oakland Center
11:48 35.7686 -120.5339 299° West 396 456 34,000 -1,080 Descending Oakland Center
11:49 35.8036 -120.6611 289° West 403 464 33,000 -1,020 Descending Oakland Center
11:50 35.8167 -120.7958 277° West 400 460 32,000 -1,020 Descending Oakland Center
11:52 35.8631 -120.9061 297° West 386 444 31,000 -1,020 Descending Oakland Center
11:53 35.9514 -120.9794 326° Northwest 380 437 30,000 -1,020 Descending Oakland Center
11:54 36.0381 -121.0547 325° Northwest 380 437 29,000 -1,020 Descending Oakland Center
11:55 36.1217 -121.1281 325° Northwest 369 425 28,000 -1,260 Descending Oakland Center
11:56 36.2044 -121.2011 325° Northwest 365 420 26,500 -1,620 Descending Oakland Center
11:57 36.3008 -121.2842 325° Northwest 352 405 24,800 -1,860 Descending Oakland Center
11:58 36.3781 -121.3511 325° Northwest 340 391 22,800 -1,920 Descending Oakland Center
11:59 36.4528 -121.4161 325° Northwest 329 379 20,900 -1,860 Descending Oakland Center
12:00 36.5236 -121.4792 324° Northwest 314 361 19,100 -2,100 Descending Oakland Center
12:01 36.5997 -121.5272 333° Northwest 307 353 16,700 -2,400 Descending Oakland Center
12:02 36.6894 -121.5533 347° North 324 373 14,200 -2,460 Descending Oakland Center
12:03 36.7767 -121.5811 346° North 322 371 11,700 -2,160 Descending Oakland Center
12:04 36.8669 -121.6125 344° North 310 357 9,900 -1,380 Descending Oakland Center
12:05 36.9383 -121.6358 345° North 271 312 8,900 -540 Descending Oakland Center
12:06 37.0072 -121.6592 345° North 259 298 8,900 -840 Level Oakland Center
12:07 37.0769 -121.6839 344° North 260 299 7,300 -1,440 Descending Oakland Center
12:08 37.1500 -121.6892 357° North 251 289 6,000 -1,440 Descending Oakland Center
12:09 37.1972 -121.7522 313° West 255 293 4,400 -1,560 Descending Oakland Center
12:10 37.2447 -121.8025 320° Northwest 239 275 2,900 -1,200 Descending Oakland Center
12:11 37.2825 -121.8428 320° Northwest 204 235 2,000 -900 Descending Oakland Center
12:12 37.3161 -121.8803 318° Northwest 159 183 1,100 -840 Descending Oakland Center
12:13 37.3436 -121.9092 320° Northwest 139 160 400 -720 Descending Oakland Center
12:15 37.3500 -121.9167 North  Level FlightAware Approximate
12:22 37.3627 -121.9291 North  Level Estimated